Bavaria

Go HERE for most recent data if this page is not up to date.

Jump to table bottom
Date Time Temp F RH % AVG Wind Max Wind Wind Dir 24 Snow Depth
03/01 06:00 15.0 87 14 19 W - 291 10.3 152.5
03/01 05:00 17.2 86 9 14 NW - 321 10.4 152.5
03/01 04:00 19.1 86 6 15 W - 279 7.5 152.5
03/01 03:00 20.6 88 3 9 SW - 236 5.7 43.8
03/01 02:00 21.7 87 5 13 SW - 206 5.7 43.6
03/01 01:00 22.0 87 4 14 S - 171 5.7 43.5
03/01 00:00 23.1 84 5 12 S - 179 5.7 43.5
02/29 23:00 22.7 87 5 12 SW - 209 5.7 43.5
02/29 22:00 22.5 88 4 13 SW - 239 5.7 43.7
02/29 21:00 22.5 80 4 12 SW - 241 5.8 43.7
02/29 20:00 22.8 75 4 13 SW - 209 5.7 43.7
02/29 19:00 24.1 72 4 14 S - 194 5.8 44.0
02/29 18:00 23.4 75 5 9 SW - 220 5.8 44.6
02/29 17:00 23.9 71 4 10 W - 249 5.8 44.3
02/29 16:00 24.8 67 5 10 SW - 238 5.8 44.5
02/29 15:00 23.9 73 5 9 S - 198 5.8 45.4
02/29 14:00 24.7 75 5 11 S - 188 5.7 44.4
02/29 13:00 26.8 73 5 12 SW - 205 3.8 44.3
02/29 12:00 27.7 64 4 9 W - 255 1.1 44.0
02/29 11:00 28.9 66 5 11 E - 80 0.1 44.5
02/29 10:00 28.5 64 5 12 NW - 293 0.0 44.6
02/29 09:00 25.3 75 4 8 SW - 232 0.2 44.6
02/29 08:00 20.4 85 3 9 W - 269 0.3 152.5
02/29 07:00 19.4 86 3 6 W - 266 0.3 44.0
02/29 06:00 19.1 87 3 7 NW - 320 0.2 152.5
02/29 05:00 19.0 88 3 7 W - 265 0.3 44.4
02/29 04:00 15.8 87 3 9 SW - 242 0.2 44.2
02/29 03:00 15.3 87 3 10 W - 279 0.2 44.1
02/29 02:00 15.1 87 2 11 W - 251 0.1 44.1
02/29 01:00 16.3 87 2 6 E - 78 0.2 44.5
02/29 00:00 16.3 87 2 7 S - 171 0.1 44.4
.